Time;durP1;ratioP1;P1;durP2;ratioP2;P2;SDS_P1;SDS_P2;PMS_P1;PMS_P2;Temp;Humidity;BMP_temperature;BMP_pressure;BME280_temperature;BME280_humidity;BME280_pressure;Samples;Min_cycle;Max_cycle;Signal;HPM_P1;HPM_P2
2023/01/09 00:00:12;;;;;;;1.33;1.33;;;;;;;8.35;100.00;95161.84;5073661;28;20230;-55
2023/01/09 00:02:39;;;;;;;1.50;1.40;;;;;;;8.45;100.00;95165.13;5073827;28;20206;-55
2023/01/09 00:05:07;;;;;;;1.50;1.40;;;;;;;8.45;100.00;95159.03;5073937;28;20202;-56
2023/01/09 00:07:34;;;;;;;1.33;1.30;;;;;;;8.48;100.00;95161.31;5073858;28;20226;-55
2023/01/09 00:10:00;;;;;;;1.80;1.70;;;;;;;8.46;100.00;95163.31;5073329;28;20218;-54
2023/01/09 00:12:28;;;;;;;1.47;1.37;;;;;;;8.46;100.00;95168.59;5073075;28;20206;-56
2023/01/09 00:14:55;;;;;;;2.40;1.50;;;;;;;8.42;100.00;95164.63;5074185;28;20670;-55
2023/01/09 00:17:21;;;;;;;1.30;1.20;;;;;;;8.40;100.00;95167.41;5073967;28;20221;-55
2023/01/09 00:19:48;;;;;;;1.00;1.00;;;;;;;8.43;100.00;95171.56;5072993;28;20207;-54
2023/01/09 00:22:14;;;;;;;1.20;1.20;;;;;;;8.39;100.00;95173.69;5074053;28;20222;-56
2023/01/09 00:24:41;;;;;;;1.10;1.10;;;;;;;8.41;100.00;95170.88;5072402;28;20198;-56
2023/01/09 00:27:07;;;;;;;0.93;0.90;;;;;;;8.41;100.00;95169.06;5073601;28;20692;-55
2023/01/09 00:29:35;;;;;;;1.03;1.03;;;;;;;8.36;100.00;95162.66;5073536;28;20207;-56
2023/01/09 00:32:01;;;;;;;0.93;0.90;;;;;;;8.37;100.00;95172.19;5073660;28;20666;-58
2023/01/09 00:34:28;;;;;;;1.57;1.30;;;;;;;8.37;100.00;95165.13;5073401;28;20217;-53
2023/01/09 00:36:55;;;;;;;1.43;1.33;;;;;;;8.36;100.00;95157.41;5073527;28;20191;-56
2023/01/09 00:39:22;;;;;;;1.27;1.23;;;;;;;8.38;100.00;95160.69;5072780;28;20635;-56
2023/01/09 00:41:51;;;;;;;0.90;0.90;;;;;;;8.35;100.00;95159.22;5073438;28;20206;-55
2023/01/09 00:44:21;;;;;;;0.90;0.90;;;;;;;8.34;100.00;95159.34;5073617;28;20221;-56
2023/01/09 00:46:51;;;;;;;0.97;0.90;;;;;;;8.29;100.00;95157.22;5074523;28;20225;-55
2023/01/09 00:49:18;;;;;;;1.23;1.23;;;;;;;8.29;100.00;95157.22;5077479;28;20206;-56
2023/01/09 00:51:45;;;;;;;1.20;1.10;;;;;;;8.30;100.00;95158.03;5076622;28;20218;-56
2023/01/09 00:54:14;;;;;;;1.00;1.00;;;;;;;8.28;100.00;95149.47;5075951;28;20213;-56
2023/01/09 00:56:40;;;;;;;1.40;1.30;;;;;;;8.25;100.00;95155.88;5075963;28;20201;-56
2023/01/09 00:59:07;;;;;;;0.90;0.90;;;;;;;8.21;100.00;95164.28;5076701;28;20198;-55
2023/01/09 01:01:34;;;;;;;1.20;1.20;;;;;;;8.23;100.00;95162.28;5075513;28;20237;-55
2023/01/09 01:07:37;;;;;;;0.90;0.90;;;;;;;8.19;100.00;95145.16;5074852;28;20206;-55
2023/01/09 01:09:33;;;;;;;0.87;0.87;;;;;;;8.20;100.00;95157.34;5072429;28;21232;-55
2023/01/09 01:12:05;;;;;;;1.03;0.73;;;;;;;8.21;100.00;95167.72;5073411;28;20218;-56
2023/01/09 01:14:32;;;;;;;0.80;0.80;;;;;;;8.18;100.00;95169.88;5073044;28;20264;-56
2023/01/09 01:16:59;;;;;;;0.93;0.93;;;;;;;8.17;100.00;95155.06;5073097;28;20221;-56
2023/01/09 01:19:27;;;;;;;0.63;0.63;;;;;;;8.21;100.00;95153.75;5072865;28;20205;-57
2023/01/09 01:21:53;;;;;;;1.27;0.80;;;;;;;8.20;100.00;95146.81;5073143;28;20202;-55
2023/01/09 01:24:20;;;;;;;2.20;0.60;;;;;;;8.22;100.00;95164.09;5072206;28;20198;-55
2023/01/09 01:26:47;;;;;;;0.40;0.40;;;;;;;8.23;100.00;95159.66;5072946;28;20218;-55
2023/01/09 01:29:13;;;;;;;0.50;0.50;;;;;;;8.19;100.00;95176.75;5072538;28;20528;-54
2023/01/09 01:31:40;;;;;;;0.70;0.70;;;;;;;8.18;100.00;95175.97;5072352;28;20198;-55
2023/01/09 01:34:07;;;;;;;0.80;0.67;;;;;;;8.25;100.00;95165.59;5072625;28;20524;-56
2023/01/09 01:36:35;;;;;;;0.30;0.30;;;;;;;8.24;100.00;95175.31;5072966;28;20524;-54
2023/01/09 01:39:01;;;;;;;0.87;0.50;;;;;;;8.24;100.00;95182.38;5072451;28;20207;-55
2023/01/09 01:41:29;;;;;;;0.50;0.50;;;;;;;8.22;100.00;95184.34;5072277;28;20650;-55
2023/01/09 01:43:56;;;;;;;0.47;0.47;;;;;;;8.19;100.00;95193.38;5074639;28;20206;-55
2023/01/09 01:46:23;;;;;;;0.30;0.30;;;;;;;8.14;100.00;95184.34;5072876;28;20571;-55
2023/01/09 01:48:53;;;;;;;1.13;0.40;;;;;;;8.14;100.00;95200.16;5072944;28;20207;-55
2023/01/09 01:51:21;;;;;;;0.50;0.50;;;;;;;8.07;100.00;95199.97;5072555;28;20205;-56
2023/01/09 01:53:52;;;;;;;0.20;0.20;;;;;;;8.06;100.00;95197.50;5072581;28;20207;-55
2023/01/09 01:56:20;;;;;;;0.73;0.43;;;;;;;8.04;100.00;95191.59;5071833;28;20202;-55
2023/01/09 01:58:49;;;;;;;0.93;0.47;;;;;;;7.99;100.00;95203.41;5072363;28;20213;-56
2023/01/09 02:01:16;;;;;;;1.17;0.27;;;;;;;7.96;100.00;95203.75;5071339;28;20241;-55
2023/01/09 02:03:43;;;;;;;0.30;0.30;;;;;;;7.94;100.00;95210.97;5072420;28;20218;-56
2023/01/09 02:06:10;;;;;;;1.07;0.60;;;;;;;7.95;100.00;95215.25;5071456;28;20202;-55
2023/01/09 02:08:37;;;;;;;2.00;0.37;;;;;;;7.98;100.00;95196.50;5072943;28;20226;-56
2023/01/09 02:11:05;;;;;;;0.30;0.30;;;;;;;7.98;100.00;95199.13;5072679;28;20210;-56
2023/01/09 02:13:33;;;;;;;0.33;0.33;;;;;;;7.90;100.00;95204.38;5072110;28;20233;-55
2023/01/09 02:16:15;;;;;;;0.30;0.20;;;;;;;7.90;100.00;95220.16;5071344;28;20656;-55
2023/01/09 02:18:47;;;;;;;0.57;0.30;;;;;;;7.93;100.00;95240.94;5071760;28;20539;-55
2023/01/09 02:21:22;;;;;;;0.20;0.20;;;;;;;8.07;100.00;95262.34;5071416;28;20840;-54
2023/01/09 02:24:31;;;;;;;0.20;0.20;;;;;;;7.98;100.00;95266.75;5070896;28;20208;-56
2023/01/09 02:27:10;;;;;;;0.30;0.20;;;;;;;7.89;100.00;95268.53;5063965;28;20670;-55
2023/01/09 02:30:22;;;;;;;0.10;0.10;;;;;;;7.92;100.00;95257.69;5071749;28;20213;-55
2023/01/09 02:33:02;;;;;;;0.30;0.10;;;;;;;7.88;100.00;95256.34;5071825;28;20198;-56
2023/01/09 02:35:37;;;;;;;0.30;0.30;;;;;;;7.81;100.00;95254.53;5070964;28;20643;-55
2023/01/09 02:38:10;;;;;;;0.10;0.10;;;;;;;7.88;100.00;95269.50;5071645;28;20198;-56
2023/01/09 02:40:40;;;;;;;0.30;0.30;;;;;;;7.77;100.00;95276.88;5070998;28;20206;-55
2023/01/09 02:43:07;;;;;;;0.10;0.10;;;;;;;7.77;100.00;95272.44;5071497;28;20221;-55
2023/01/09 02:45:35;;;;;;;0.43;0.10;;;;;;;7.73;100.00;95275.53;5071212;28;20202;-55
2023/01/09 02:48:01;;;;;;;0.13;0.13;;;;;;;7.66;100.00;95291.13;5070241;28;20774;-54
2023/01/09 02:50:32;;;;;;;0.50;0.10;;;;;;;7.68;100.00;95302.34;5070307;28;20206;-55
2023/01/09 02:53:27;;;;;;;0.20;0.20;;;;;;;7.67;100.00;95311.22;5071051;28;20213;-55
2023/01/09 02:56:05;;;;;;;0.23;0.10;;;;;;;7.65;100.00;95321.06;5071036;28;20207;-55
2023/01/09 02:58:43;;;;;;;0.87;0.10;;;;;;;7.60;100.00;95338.31;5071141;28;20261;-55
2023/01/09 03:01:21;;;;;;;0.30;0.30;;;;;;;7.38;100.00;95350.19;5070829;28;20230;-56
2023/01/09 03:03:52;;;;;;;0.10;0.10;;;;;;;7.34;100.00;95364.59;5071078;28;20218;-55
2023/01/09 03:06:23;;;;;;;0.10;0.10;;;;;;;7.25;100.00;95370.81;5070926;28;20221;-55
2023/01/09 03:08:52;;;;;;;0.40;0.13;;;;;;;7.15;100.00;95385.84;5071191;28;20225;-55
2023/01/09 03:11:20;;;;;;;0.30;0.10;;;;;;;7.09;100.00;95378.53;5068665;28;20214;-55
2023/01/09 03:13:50;;;;;;;0.10;0.10;;;;;;;6.98;100.00;95385.69;5071311;28;20500;-56
2023/01/09 03:16:21;;;;;;;0.20;0.10;;;;;;;7.08;100.00;95387.44;5071007;28;20199;-56
2023/01/09 03:18:49;;;;;;;0.10;0.10;;;;;;;7.05;100.00;95369.34;5070025;28;20198;-55
2023/01/09 03:21:16;;;;;;;0.10;0.10;;;;;;;6.93;100.00;95379.25;5070422;28;20202;-55
2023/01/09 03:23:47;;;;;;;0.20;0.20;;;;;;;6.89;100.00;95391.03;5071316;28;20200;-55
2023/01/09 03:26:13;;;;;;;0.10;0.10;;;;;;;6.88;100.00;95394.66;5071185;28;20214;-55
2023/01/09 03:28:40;;;;;;;0.27;0.23;;;;;;;6.88;100.00;95405.97;5072841;28;20221;-55
2023/01/09 03:31:07;;;;;;;0.03;0.03;;;;;;;6.85;100.00;95400.19;5070867;28;20202;-55
2023/01/09 03:33:35;;;;;;;0.00;0.00;;;;;;;6.88;100.00;95437.50;5070649;28;20211;-55
2023/01/09 03:36:01;;;;;;;0.10;0.10;;;;;;;6.87;100.00;95443.72;5071393;28;20203;-55
2023/01/09 03:38:28;;;;;;;0.10;0.10;;;;;;;6.84;100.00;95425.66;5078360;28;20197;-54
2023/01/09 03:40:54;;;;;;;0.10;0.10;;;;;;;6.82;100.00;95446.00;5089950;28;20191;-55
2023/01/09 03:43:21;;;;;;;0.17;0.10;;;;;;;6.83;100.00;95457.34;5091149;28;20200;-55
2023/01/09 03:45:47;;;;;;;0.20;0.20;;;;;;;6.79;100.00;95464.69;5079240;28;20202;-55
2023/01/09 03:48:14;;;;;;;0.10;0.10;;;;;;;6.78;100.00;95468.28;5071015;28;20218;-55
2023/01/09 03:50:44;;;;;;;0.10;0.10;;;;;;;6.76;100.00;95470.25;5071374;28;20198;-56
2023/01/09 03:53:11;;;;;;;0.30;0.30;;;;;;;6.69;100.00;95471.81;5075723;28;20707;-55
2023/01/09 03:55:38;;;;;;;0.23;0.23;;;;;;;6.77;100.00;95481.56;5072370;28;20225;-54
2023/01/09 03:58:04;;;;;;;0.10;0.10;;;;;;;6.66;100.00;95490.47;5071443;28;20537;-56
2023/01/09 04:00:32;;;;;;;0.10;0.10;;;;;;;6.58;100.00;95479.06;5071028;28;20257;-59
2023/01/09 04:02:59;;;;;;;0.10;0.10;;;;;;;6.51;100.00;95497.22;5070325;28;20206;-55
2023/01/09 04:05:25;;;;;;;0.07;0.07;;;;;;;6.49;100.00;95493.91;5070287;28;20206;-56
2023/01/09 04:07:53;;;;;;;0.00;0.00;;;;;;;6.52;100.00;95504.09;5069442;28;20570;-56
2023/01/09 04:10:20;;;;;;;0.00;0.00;;;;;;;6.46;100.00;95525.69;5070377;28;20210;-56
2023/01/09 04:12:46;;;;;;;0.30;0.20;;;;;;;6.45;100.00;95551.13;5070739;28;20213;-55
2023/01/09 04:15:12;;;;;;;0.10;0.10;;;;;;;6.43;100.00;95555.72;5070495;28;20210;-56
2023/01/09 04:17:39;;;;;;;0.10;0.10;;;;;;;6.46;100.00;95559.84;5070555;28;20210;-55
2023/01/09 04:20:06;;;;;;;0.40;0.20;;;;;;;6.46;100.00;95557.22;5070654;28;20202;-55
2023/01/09 04:22:33;;;;;;;2.10;0.20;;;;;;;6.51;100.00;95576.00;5070444;28;20217;-56
2023/01/09 04:25:01;;;;;;;0.10;0.10;;;;;;;6.46;100.00;95581.69;5070754;28;20202;-55
2023/01/09 04:27:27;;;;;;;0.10;0.10;;;;;;;6.37;100.00;95600.94;5070796;28;20207;-55
2023/01/09 04:29:54;;;;;;;0.10;0.10;;;;;;;6.34;100.00;95608.25;5073689;28;20217;-54
2023/01/09 04:32:20;;;;;;;0.30;0.20;;;;;;;6.24;100.00;95612.69;5074455;28;20194;-55
2023/01/09 04:34:47;;;;;;;0.10;0.10;;;;;;;6.21;100.00;95615.59;5076875;28;20206;-56
2023/01/09 04:37:14;;;;;;;0.00;0.00;;;;;;;6.19;100.00;95601.81;5075859;28;20203;-56
2023/01/09 04:39:43;;;;;;;0.30;0.20;;;;;;;6.10;100.00;95608.72;5075414;28;20195;-56
2023/01/09 04:42:11;;;;;;;0.10;0.10;;;;;;;6.10;100.00;95590.34;5076118;28;20241;-56
2023/01/09 04:44:37;;;;;;;0.00;0.00;;;;;;;6.13;100.00;95613.69;5076785;28;20203;-56
2023/01/09 04:47:04;;;;;;;0.00;0.00;;;;;;;6.05;100.00;95612.75;5078352;28;20199;-57
2023/01/09 04:49:31;;;;;;;0.30;0.20;;;;;;;6.03;100.00;95606.78;5075752;28;20229;-56
2023/01/09 04:51:57;;;;;;;0.00;0.00;;;;;;;6.14;100.00;95620.59;5074990;28;20218;-55
2023/01/09 04:54:24;;;;;;;0.60;0.13;;;;;;;6.03;100.00;95625.16;5075979;28;20198;-56
2023/01/09 04:56:50;;;;;;;1.20;0.10;;;;;;;6.04;100.00;95639.94;5075525;28;20206;-60
2023/01/09 04:59:18;;;;;;;0.00;0.00;;;;;;;6.05;100.00;95625.88;5075279;28;20194;-57
2023/01/09 05:01:45;;;;;;;0.00;0.00;;;;;;;6.05;100.00;95647.69;5073530;28;20230;-55
2023/01/09 05:04:11;;;;;;;0.00;0.00;;;;;;;6.08;100.00;95641.31;5074938;28;20229;-55
2023/01/09 05:06:38;;;;;;;0.40;0.10;;;;;;;6.14;100.00;95636.34;5074305;28;20221;-56
2023/01/09 05:09:05;;;;;;;0.10;0.10;;;;;;;6.00;100.00;95644.66;5074258;28;20229;-56
2023/01/09 05:11:31;;;;;;;1.20;0.10;;;;;;;5.97;100.00;95656.25;5074531;28;20194;-55
2023/01/09 05:13:57;;;;;;;0.10;0.10;;;;;;;5.93;100.00;95654.03;5074660;28;20210;-56
2023/01/09 05:16:26;;;;;;;0.27;0.10;;;;;;;5.88;100.00;95649.19;5074169;28;20213;-55
2023/01/09 05:18:55;;;;;;;2.53;0.20;;;;;;;5.88;100.00;95657.06;5074290;28;20207;-56
2023/01/09 05:21:22;;;;;;;0.57;0.20;;;;;;;5.86;100.00;95647.69;5073853;28;20753;-55
2023/01/09 05:23:49;;;;;;;0.10;0.10;;;;;;;5.73;100.00;95644.50;5073226;28;20230;-55
2023/01/09 05:26:15;;;;;;;0.10;0.10;;;;;;;5.72;100.00;95661.19;5073404;28;20264;-56
2023/01/09 05:28:42;;;;;;;0.00;0.00;;;;;;;5.61;100.00;95649.03;5073255;28;20214;-55
2023/01/09 05:31:08;;;;;;;1.50;1.40;;;;;;;5.76;100.00;95667.81;5072758;28;20217;-55
2023/01/09 05:33:36;;;;;;;0.10;0.10;;;;;;;5.74;100.00;95670.56;5072988;28;20635;-55
2023/01/09 05:36:02;;;;;;;0.10;0.10;;;;;;;5.77;100.00;95672.09;5073358;28;20213;-55
2023/01/09 05:38:29;;;;;;;0.10;0.10;;;;;;;5.70;100.00;95666.59;5072243;28;20518;-56
2023/01/09 05:40:55;;;;;;;0.10;0.10;;;;;;;5.66;100.00;95667.81;5072190;28;20217;-56
2023/01/09 05:43:22;;;;;;;0.10;0.10;;;;;;;5.65;100.00;95671.41;5072717;28;20203;-56
2023/01/09 05:45:48;;;;;;;0.10;0.10;;;;;;;5.71;100.00;95680.50;5072704;28;20210;-55
2023/01/09 05:48:15;;;;;;;0.30;0.20;;;;;;;5.66;100.00;95683.56;5072778;28;20247;-56
2023/01/09 05:50:43;;;;;;;0.37;0.37;;;;;;;5.70;100.00;95692.81;5072769;28;20203;-56
2023/01/09 05:53:09;;;;;;;0.20;0.20;;;;;;;5.70;100.00;95686.72;5072071;28;20210;-56
2023/01/09 05:55:36;;;;;;;0.20;0.20;;;;;;;5.70;100.00;95684.94;5072584;28;20297;-55
2023/01/09 05:58:02;;;;;;;1.33;0.30;;;;;;;5.68;100.00;95684.22;5071957;28;20202;-56
2023/01/09 06:00:29;;;;;;;0.47;0.47;;;;;;;5.65;100.00;95687.13;5071995;28;20253;-56
2023/01/09 06:02:56;;;;;;;0.20;0.20;;;;;;;5.62;100.00;95687.41;5072658;28;20206;-56
2023/01/09 06:05:22;;;;;;;0.10;0.10;;;;;;;5.53;100.00;95682.16;5073622;28;20221;-55
2023/01/09 06:07:50;;;;;;;0.10;0.10;;;;;;;5.62;100.00;95683.97;5073812;28;20206;-55
2023/01/09 06:10:17;;;;;;;0.10;0.10;;;;;;;5.64;100.00;95688.09;5072718;28;20202;-56
2023/01/09 06:12:47;;;;;;;0.80;0.20;;;;;;;5.55;100.00;95694.16;5072734;28;20215;-56
2023/01/09 06:15:14;;;;;;;0.20;0.10;;;;;;;5.47;100.00;95699.25;5072966;28;20638;-55
2023/01/09 06:17:40;;;;;;;0.27;0.27;;;;;;;5.42;100.00;95683.91;5072375;28;20215;-55
2023/01/09 06:20:09;;;;;;;0.10;0.10;;;;;;;5.37;100.00;95703.66;5073907;28;20277;-55
2023/01/09 06:22:35;;;;;;;0.57;0.30;;;;;;;5.39;100.00;95706.94;5074735;28;20210;-56
2023/01/09 06:25:03;;;;;;;0.30;0.30;;;;;;;5.30;100.00;95703.34;5074861;28;20210;-55
2023/01/09 06:27:30;;;;;;;0.47;0.47;;;;;;;5.37;100.00;95695.78;5078082;28;20210;-55
2023/01/09 06:29:57;;;;;;;0.93;0.53;;;;;;;5.37;100.00;95703.66;5079037;28;20230;-55
2023/01/09 06:32:23;;;;;;;0.87;0.50;;;;;;;5.39;100.00;95702.53;5077498;28;20206;-55
2023/01/09 06:34:50;;;;;;;1.13;0.20;;;;;;;5.37;100.00;95699.22;5075555;28;20207;-55
2023/01/09 06:37:16;;;;;;;1.17;0.40;;;;;;;5.46;100.00;95702.81;5071627;28;20211;-55
2023/01/09 06:39:43;;;;;;;1.23;0.40;;;;;;;5.42;100.00;95707.50;5071621;28;20190;-56
2023/01/09 06:42:10;;;;;;;1.07;0.20;;;;;;;5.52;100.00;95718.03;5070475;28;20221;-55
2023/01/09 06:44:37;;;;;;;4.50;4.10;;;;;;;5.48;100.00;95712.22;5072136;28;20198;-55
2023/01/09 06:47:03;;;;;;;1.80;0.70;;;;;;;5.59;100.00;95702.59;5070553;28;20194;-55
2023/01/09 06:49:30;;;;;;;0.87;0.30;;;;;;;5.51;100.00;95698.84;5071270;28;21451;-56
2023/01/09 06:51:56;;;;;;;1.37;0.47;;;;;;;5.53;100.00;95691.66;5070584;28;20206;-55
2023/01/09 06:54:23;;;;;;;1.97;0.60;;;;;;;5.51;100.00;95696.22;5070702;28;20639;-53
2023/01/09 06:56:50;;;;;;;1.40;0.50;;;;;;;5.61;100.00;95692.78;5071041;28;20297;-55
2023/01/09 06:59:17;;;;;;;1.57;0.67;;;;;;;5.63;100.00;95691.69;5071449;28;20206;-55
2023/01/09 07:01:44;;;;;;;0.60;0.30;;;;;;;5.58;100.00;95670.28;5071415;28;20238;-52
2023/01/09 07:04:10;;;;;;;1.37;0.40;;;;;;;5.52;100.00;95678.72;5070715;28;20203;-53
2023/01/09 07:06:37;;;;;;;0.37;0.33;;;;;;;5.42;100.00;95670.00;5071001;28;20202;-54
2023/01/09 07:09:04;;;;;;;1.00;0.30;;;;;;;5.51;100.00;95674.41;5070779;28;20245;-55
2023/01/09 07:11:31;;;;;;;1.63;0.70;;;;;;;5.45;100.00;95674.97;5070767;28;20222;-54
2023/01/09 07:13:57;;;;;;;1.70;0.60;;;;;;;5.51;100.00;95671.78;5067769;28;20230;-53
2023/01/09 07:16:25;;;;;;;1.03;0.53;;;;;;;5.52;100.00;95670.84;5070594;28;21323;-52
2023/01/09 07:18:53;;;;;;;1.63;0.70;;;;;;;5.53;100.00;95667.22;5070112;28;20198;-52
2023/01/09 07:21:20;;;;;;;0.80;0.67;;;;;;;5.53;100.00;95662.00;5070108;28;20256;-52
2023/01/09 07:23:46;;;;;;;0.40;0.40;;;;;;;5.63;100.00;95662.84;5069962;28;20217;-52
2023/01/09 07:26:13;;;;;;;1.20;0.40;;;;;;;5.69;100.00;95661.47;5069595;28;20203;-54
2023/01/09 07:28:39;;;;;;;2.10;0.57;;;;;;;5.65;100.00;95650.41;5070348;28;20225;-52
2023/01/09 07:31:06;;;;;;;1.60;0.67;;;;;;;5.49;100.00;95653.56;5069556;28;20222;-53
2023/01/09 07:33:34;;;;;;;1.30;0.63;;;;;;;5.49;100.00;95660.63;5071227;28;20276;-53
2023/01/09 07:36:01;;;;;;;0.30;0.30;;;;;;;5.55;100.00;95652.22;5070626;28;20210;-54
2023/01/09 07:38:27;;;;;;;3.27;1.17;;;;;;;5.51;100.00;95640.34;5069050;28;20205;-55
2023/01/09 07:40:54;;;;;;;0.67;0.30;;;;;;;5.48;100.00;95638.00;5068472;28;20218;-55
2023/01/09 07:43:20;;;;;;;3.30;0.90;;;;;;;5.41;100.00;95629.84;5069085;28;20221;-53
2023/01/09 07:45:47;;;;;;;1.00;0.50;;;;;;;5.42;100.00;95630.69;5069988;28;20229;-55
2023/01/09 07:48:13;;;;;;;1.27;0.60;;;;;;;5.30;100.00;95629.13;5069177;28;20198;-53
2023/01/09 07:50:41;;;;;;;2.93;0.60;;;;;;;5.30;100.00;95623.88;5070337;28;20225;-53
2023/01/09 07:53:07;;;;;;;2.00;0.57;;;;;;;5.24;100.00;95627.06;5069206;28;20210;-54
2023/01/09 07:55:34;;;;;;;1.07;0.47;;;;;;;5.21;100.00;95629.97;5069836;28;20203;-55
2023/01/09 07:58:00;;;;;;;0.73;0.70;;;;;;;5.15;100.00;95638.34;5069342;28;20199;-53
2023/01/09 08:00:27;;;;;;;1.67;0.57;;;;;;;5.14;100.00;95634.88;5068577;28;20222;-55
2023/01/09 08:02:53;;;;;;;1.63;0.70;;;;;;;5.16;100.00;95647.84;5073433;28;20206;-54
2023/01/09 08:05:20;;;;;;;0.90;0.40;;;;;;;5.21;100.00;95640.44;5085373;28;20213;-54
2023/01/09 08:07:49;;;;;;;0.67;0.67;;;;;;;5.19;100.00;95637.09;5093705;28;20198;-54
2023/01/09 08:10:18;;;;;;;2.63;0.80;;;;;;;5.16;100.00;95642.63;5088259;28;20233;-55
2023/01/09 08:12:45;;;;;;;1.40;0.53;;;;;;;5.21;100.00;95630.75;5075640;28;20750;-52
2023/01/09 08:15:12;;;;;;;1.13;0.70;;;;;;;5.20;100.00;95638.78;5074839;28;20203;-54
2023/01/09 08:17:40;;;;;;;1.30;0.73;;;;;;;5.13;100.00;95642.91;5073343;28;20221;-54
2023/01/09 08:20:07;;;;;;;1.90;0.40;;;;;;;5.17;100.00;95654.78;5073906;28;20786;-55
2023/01/09 08:22:34;;;;;;;1.80;1.00;;;;;;;5.13;100.00;95661.25;5072799;28;20218;-53
2023/01/09 08:25:02;;;;;;;1.73;0.67;;;;;;;5.14;100.00;95665.50;5073752;28;20207;-53
2023/01/09 08:27:28;;;;;;;0.80;0.60;;;;;;;5.15;100.00;95667.16;5071348;28;20550;-55
2023/01/09 08:29:55;;;;;;;2.23;0.57;;;;;;;5.21;100.00;95666.66;5073202;28;20569;-54
2023/01/09 08:32:21;;;;;;;1.27;0.63;;;;;;;5.22;100.00;95663.88;5072279;28;20642;-52
2023/01/09 08:34:48;;;;;;;0.53;0.40;;;;;;;5.20;100.00;95659.75;5072706;28;20226;-54
2023/01/09 08:37:14;;;;;;;1.63;0.70;;;;;;;5.15;100.00;95661.91;5073075;28;20206;-54
2023/01/09 08:39:40;;;;;;;1.33;0.73;;;;;;;5.23;100.00;95662.09;5072551;28;20248;-55
2023/01/09 08:47:36;;;;;;;1.33;0.53;;;;;;;5.05;100.00;95655.81;5073337;28;20533;-54
2023/01/09 08:50:03;;;;;;;1.13;0.60;;;;;;;5.03;100.00;95654.16;5071754;28;20214;-53
2023/01/09 08:52:30;;;;;;;2.10;0.70;;;;;;;5.05;100.00;95671.53;5073334;28;20198;-52
2023/01/09 08:54:56;;;;;;;1.47;0.80;;;;;;;5.07;100.00;95664.38;5073391;28;20205;-55
2023/01/09 08:57:25;;;;;;;1.20;0.80;;;;;;;5.12;100.00;95670.88;5073758;28;21348;-54
2023/01/09 08:59:51;;;;;;;0.90;0.70;;;;;;;5.13;100.00;95664.69;5073311;28;20226;-56
2023/01/09 09:02:20;;;;;;;2.03;0.43;;;;;;;5.21;100.00;95671.88;5074384;28;20203;-55
2023/01/09 09:04:46;;;;;;;1.93;0.50;;;;;;;5.29;100.00;95665.00;5073189;28;20198;-55
2023/01/09 09:07:14;;;;;;;0.70;0.70;;;;;;;5.34;100.00;95656.72;5072782;28;20203;-54
2023/01/09 09:09:40;;;;;;;2.90;0.70;;;;;;;5.46;100.00;95666.13;5070783;28;20232;-55
2023/01/09 09:12:07;;;;;;;0.90;0.70;;;;;;;5.53;100.00;95669.84;5073645;28;20214;-54
2023/01/09 09:18:02;;;;;;;0.67;0.60;;;;;;;5.70;100.00;95663.97;5070893;28;20255;-54
2023/01/09 09:20:30;;;;;;;1.77;0.40;;;;;;;5.83;100.00;95669.75;5072379;28;20190;-55
2023/01/09 09:22:57;;;;;;;2.13;0.50;;;;;;;5.96;99.67;95675.56;5073262;28;20293;-53
2023/01/09 09:25:24;;;;;;;0.93;0.60;;;;;;;6.64;99.24;95671.06;5070190;28;20825;-54
2023/01/09 09:27:51;;;;;;;0.83;0.60;;;;;;;7.54;91.64;95673.84;5073102;28;20209;-53
2023/01/09 09:30:19;;;;;;;1.37;0.50;;;;;;;8.57;82.44;95670.66;5071715;28;20226;-54
2023/01/09 09:32:46;;;;;;;1.23;0.60;;;;;;;9.24;77.25;95660.16;5072348;28;20203;-53
2023/01/09 09:35:13;;;;;;;0.93;0.60;;;;;;;10.00;73.33;95674.06;5071946;28;20210;-53
2023/01/09 09:37:40;;;;;;;2.20;0.70;;;;;;;10.77;73.33;95672.75;5072197;28;20214;-53
2023/01/09 09:40:12;;;;;;;0.67;0.40;;;;;;;11.23;67.26;95679.06;5070650;28;20646;-54
2023/01/09 09:45:57;;;;;;;1.07;0.80;;;;;;;11.38;64.61;95681.84;5070256;28;20271;-53
2023/01/09 09:48:34;;;;;;;0.87;0.50;;;;;;;11.25;63.33;95676.28;5071913;28;20247;-54
2023/01/09 09:51:25;;;;;;;2.53;0.60;;;;;;;11.25;64.70;95670.97;5070649;28;20206;-54
2023/01/09 09:53:54;;;;;;;1.17;0.70;;;;;;;10.97;64.90;95684.63;5072445;28;20497;-53
2023/01/09 09:56:22;;;;;;;1.33;0.47;;;;;;;10.53;66.67;95688.63;5072512;28;20229;-53
2023/01/09 09:58:51;;;;;;;3.80;0.83;;;;;;;10.10;67.63;95687.09;5071516;28;20659;-54
2023/01/09 10:01:22;;;;;;;1.60;0.77;;;;;;;9.97;69.93;95690.22;5071365;28;20672;-54
2023/01/09 10:03:51;;;;;;;1.80;0.60;;;;;;;9.87;71.88;95675.53;5072452;28;20222;-55
2023/01/09 10:06:21;;;;;;;1.43;0.90;;;;;;;9.92;71.70;95679.31;5070822;28;20226;-54
2023/01/09 10:08:51;;;;;;;1.23;0.97;;;;;;;9.86;70.80;95672.03;5071722;28;20207;-55
2023/01/09 10:11:23;;;;;;;1.03;0.70;;;;;;;9.84;70.68;95660.84;5072011;28;20206;-54
2023/01/09 10:14:05;;;;;;;0.70;0.60;;;;;;;10.14;70.91;95661.19;5072385;28;20208;-54
2023/01/09 10:16:42;;;;;;;2.00;0.70;;;;;;;10.30;67.46;95661.22;5070577;28;20198;-54
2023/01/09 10:19:21;;;;;;;2.80;1.13;;;;;;;9.91;70.58;95661.84;5071159;28;20271;-54
2023/01/09 10:21:53;;;;;;;1.73;0.90;;;;;;;9.58;70.56;95641.63;5071281;28;20206;-54
2023/01/09 10:24:33;;;;;;;0.67;0.60;;;;;;;9.15;72.28;95649.72;5070985;28;20201;-54
2023/01/09 10:27:02;;;;;;;3.10;0.80;;;;;;;8.99;72.73;95650.47;5070361;28;20206;-53
2023/01/09 10:29:53;;;;;;;1.80;1.03;;;;;;;8.62;76.22;95645.47;5070559;28;20237;-53
2023/01/09 10:32:34;;;;;;;1.23;0.70;;;;;;;8.46;76.04;95646.22;5070577;28;20198;-54
2023/01/09 10:35:23;;;;;;;1.03;0.60;;;;;;;8.24;79.75;95641.41;5071900;28;20218;-53
2023/01/09 10:37:52;;;;;;;2.07;0.80;;;;;;;8.32;77.69;95646.78;5078594;28;20205;-54
2023/01/09 10:40:21;;;;;;;2.23;0.93;;;;;;;8.36;76.10;95656.00;5084834;28;20198;-54
2023/01/09 10:42:52;;;;;;;1.67;0.70;;;;;;;8.29;78.09;95648.91;5085952;28;20206;-52
2023/01/09 10:45:21;;;;;;;1.13;0.53;;;;;;;8.29;79.54;95654.16;5079647;28;20221;-54
2023/01/09 10:47:49;;;;;;;1.63;0.70;;;;;;;8.27;80.67;95643.75;5072520;28;20221;-54
2023/01/09 10:50:21;;;;;;;1.70;0.80;;;;;;;8.35;79.66;95645.63;5071041;28;20225;-54
2023/01/09 10:52:49;;;;;;;1.03;0.83;;;;;;;8.41;81.30;95645.03;5070175;28;20759;-53
2023/01/09 10:55:19;;;;;;;1.83;0.90;;;;;;;8.40;81.27;95653.88;5070149;28;20217;-54
2023/01/09 10:57:47;;;;;;;2.93;1.47;;;;;;;8.42;79.09;95641.41;5070660;28;20206;-52
2023/01/09 11:00:16;;;;;;;1.97;1.00;;;;;;;8.45;77.81;95647.19;5070685;28;20667;-54
2023/01/09 11:02:43;;;;;;;0.77;0.50;;;;;;;8.37;76.51;95644.50;5070915;28;20696;-54
2023/01/09 11:05:19;;;;;;;1.60;0.60;;;;;;;8.35;78.94;95643.00;5071038;28;20325;-54
2023/01/09 11:07:49;;;;;;;2.10;0.90;;;;;;;8.35;77.26;95650.91;5070906;28;20215;-54
2023/01/09 11:10:15;;;;;;;1.70;0.77;;;;;;;8.32;77.24;95653.84;5070188;28;20218;-53
2023/01/09 11:12:42;;;;;;;4.20;0.70;;;;;;;8.28;76.86;95645.44;5071178;28;20199;-52
2023/01/09 11:15:27;;;;;;;1.90;0.90;;;;;;;8.23;74.96;95638.91;5070816;28;20202;-52
2023/01/09 11:17:55;;;;;;;0.60;0.60;;;;;;;8.25;76.67;95629.91;5070270;28;20191;-54
2023/01/09 11:20:26;;;;;;;2.30;0.87;;;;;;;8.22;77.84;95634.66;5069445;28;20194;-54
2023/01/09 11:22:54;;;;;;;3.93;1.13;;;;;;;8.29;77.94;95652.34;5070544;28;20217;-54
2023/01/09 11:25:22;;;;;;;2.80;0.90;;;;;;;8.21;77.06;95659.31;5071474;28;20202;-52
2023/01/09 11:28:04;;;;;;;1.70;0.83;;;;;;;8.12;77.76;95650.53;5072052;28;20202;-55
2023/01/09 11:30:32;;;;;;;2.23;0.87;;;;;;;8.08;77.83;95654.44;5071121;28;20225;-54
2023/01/09 11:32:59;;;;;;;1.83;0.40;;;;;;;8.09;76.35;95660.53;5074103;28;20216;-55
2023/01/09 11:35:30;;;;;;;1.63;0.70;;;;;;;8.04;76.06;95657.53;5076652;28;20221;-55
2023/01/09 11:38:02;;;;;;;1.33;0.73;;;;;;;8.06;75.98;95663.47;5076434;28;20229;-54
2023/01/09 11:40:29;;;;;;;1.60;0.90;;;;;;;8.05;78.16;95660.00;5078224;28;20200;-54
2023/01/09 11:43:12;;;;;;;1.00;0.87;;;;;;;7.93;78.23;95662.06;5076760;28;20206;-54
2023/01/09 11:45:45;;;;;;;0.70;0.67;;;;;;;7.87;83.34;95659.19;5073730;28;20205;-54
2023/01/09 11:48:17;;;;;;;0.90;0.50;;;;;;;7.82;81.50;95675.44;5075740;28;20198;-53
2023/01/09 11:50:54;;;;;;;1.03;0.70;;;;;;;7.73;84.60;95686.00;5075945;28;20218;-55
2023/01/09 11:53:20;;;;;;;0.47;0.47;;;;;;;7.66;84.60;95679.69;5076239;28;20618;-54
2023/01/09 11:55:54;;;;;;;1.97;0.90;;;;;;;7.64;85.60;95687.75;5075066;28;20214;-55